createdAt,value
2022-08-01T00:04:25.034Z,99951.47
2022-08-01T00:09:26.680Z,99945.63
2022-08-01T00:14:32.256Z,99936.72
2022-08-01T00:19:34.494Z,99927.47
2022-08-01T00:24:36.146Z,99932.22
2022-08-01T00:30:10.754Z,99922.59
2022-08-01T00:34:59.285Z,99921.56
2022-08-01T00:40:00.864Z,99932.41
2022-08-01T00:45:02.442Z,99926.94
2022-08-01T00:50:05.465Z,99933.25
2022-08-01T00:55:07.771Z,99929.81
2022-08-01T01:00:10.183Z,99931.59
2022-08-01T01:05:11.802Z,99926.84
2022-08-01T01:10:19.823Z,99920.72
2022-08-01T01:15:27.325Z,99926.84
2022-08-01T01:20:32.260Z,99928.19
2022-08-01T01:25:55.478Z,99927.81
2022-08-01T01:30:58.859Z,99917.66
2022-08-01T01:36:03.318Z,99916.66
2022-08-01T01:41:11.305Z,99919.66
2022-08-01T01:46:13.569Z,99913.72
2022-08-01T01:51:16.391Z,99905.28
2022-08-01T01:56:19.400Z,99908.59
2022-08-01T02:02:05.374Z,99905.75
2022-08-01T02:06:48.086Z,99904.69
2022-08-01T02:11:59.181Z,99907.91
2022-08-01T02:17:17.498Z,99910.94
2022-08-01T02:22:26.819Z,99911.38
2022-08-01T02:27:35.894Z,99908.63
2022-08-01T02:32:41.253Z,99916.06
2022-08-01T02:37:46.914Z,99923.69
2022-08-01T02:42:51.701Z,99926.53
2022-08-01T02:47:57.147Z,99923.44
2022-08-01T02:52:59.657Z,99926.41
2022-08-01T02:58:02.186Z,99919.28
2022-08-01T03:03:06.602Z,99924.03
2022-08-01T03:08:11.923Z,99919.75
2022-08-01T03:13:16.938Z,99926.97
2022-08-01T03:18:19.433Z,99930.19
2022-08-01T03:23:22.336Z,99939.56
2022-08-01T03:28:39.701Z,99938.72
2022-08-01T03:33:41.424Z,99928.31
2022-08-01T03:38:44.458Z,99933.75
2022-08-01T03:44:11.759Z,99936.00
2022-08-01T03:49:19.541Z,99936.38
2022-08-01T03:54:33.598Z,99931.03
2022-08-01T03:59:37.476Z,99935.88
2022-08-01T04:04:39.127Z,99941.94
2022-08-01T04:09:40.712Z,99937.66
2022-08-01T04:14:44.272Z,99947.63
2022-08-01T04:19:46.191Z,99949.28
2022-08-01T04:24:54.707Z,99960.91
2022-08-01T04:29:59.968Z,99959.72
2022-08-01T04:35:23.006Z,99966.28
2022-08-01T04:40:29.434Z,99973.25
2022-08-01T04:45:31.690Z,99970.53
2022-08-01T04:50:33.561Z,99974.25
2022-08-01T04:55:35.195Z,99976.47
2022-08-01T05:00:38.198Z,99972.91
2022-08-01T05:05:39.869Z,99974.81
2022-08-01T05:10:41.487Z,99979.09
2022-08-01T05:15:43.263Z,99983.84
2022-08-01T05:20:44.845Z,99989.06
2022-08-01T05:25:56.818Z,99991.53
2022-08-01T05:30:59.758Z,99985.63
2022-08-01T05:36:01.341Z,99993.78
2022-08-01T05:41:03.027Z,99993.75
2022-08-01T05:46:04.598Z,99985.75
2022-08-01T05:51:06.212Z,99990.31
2022-08-01T05:56:07.885Z,99996.34
2022-08-01T06:01:09.443Z,99994.81
2022-08-01T06:06:11.183Z,100008.00
2022-08-01T06:11:12.763Z,100005.31
2022-08-01T06:16:15.117Z,100012.72
2022-08-01T06:21:16.746Z,100017.38
2022-08-01T06:26:19.438Z,100028.44
2022-08-01T06:31:21.014Z,100021.53
2022-08-01T06:36:22.594Z,100020.13
2022-08-01T06:41:24.556Z,100035.22
2022-08-01T06:46:30.294Z,100044.38
2022-08-01T06:51:32.256Z,100045.31
2022-08-01T06:56:36.156Z,100054.22
2022-08-01T07:01:37.907Z,100053.84
2022-08-01T07:06:39.554Z,100057.28
2022-08-01T07:11:41.158Z,100059.56
2022-08-01T07:16:42.803Z,100069.41
2022-08-01T07:21:45.215Z,100072.28
2022-08-01T07:26:53.264Z,100075.19
2022-08-01T07:31:57.375Z,100072.34
2022-08-01T07:36:58.921Z,100074.41
2022-08-01T07:42:07.248Z,100064.53
2022-08-01T07:47:09.881Z,100071.31
2022-08-01T07:52:11.500Z,100072.25
2022-08-01T07:57:13.056Z,100068.44
2022-08-01T08:02:14.840Z,100070.88
2022-08-01T08:07:16.765Z,100056.91
2022-08-01T08:12:18.539Z,100062.69
2022-08-01T08:17:35.730Z,100067.13
2022-08-01T08:22:38.172Z,100066.97
2022-08-01T08:27:39.831Z,100062.56
2022-08-01T08:32:41.907Z,100061.25
2022-08-01T08:37:47.772Z,100061.16
2022-08-01T08:42:51.452Z,100058.75
2022-08-01T08:47:54.650Z,100064.22
2022-08-01T08:52:57.355Z,100073.34
2022-08-01T08:58:01.534Z,100071.00
2022-08-01T09:03:03.284Z,100070.09
2022-08-01T09:08:08.734Z,100074.88
2022-08-01T09:13:13.141Z,100070.75
2022-08-01T09:18:35.709Z,100075.19
2022-08-01T09:23:54.130Z,100073.56
2022-08-01T09:28:56.505Z,100071.25
2022-08-01T09:34:01.721Z,100080.38
2022-08-01T09:39:13.662Z,100074.69
2022-08-01T09:44:18.561Z,100075.06
2022-08-01T09:49:50.548Z,100067.09
2022-08-01T09:54:59.282Z,100071.25
2022-08-01T10:00:02.240Z,100077.56
2022-08-01T10:05:20.722Z,100075.06
2022-08-01T10:10:23.045Z,100067.75
2022-08-01T10:15:37.364Z,100070.66
2022-08-01T10:20:39.639Z,100068.44
2022-08-01T10:25:46.756Z,100081.63
2022-08-01T10:30:49.438Z,100074.53
2022-08-01T10:35:51.930Z,100069.88
2022-08-01T10:40:55.267Z,100067.19
2022-08-01T10:45:57.101Z,100077.19
2022-08-01T10:51:01.704Z,100080.22
2022-08-01T10:56:05.333Z,100085.06
2022-08-01T11:01:25.598Z,100083.22
2022-08-01T11:06:33.567Z,100089.22
2022-08-01T11:12:06.578Z,100083.94
2022-08-01T11:17:37.435Z,100077.56
2022-08-01T11:22:58.575Z,100072.28
2022-08-01T11:28:15.477Z,100064.44
2022-08-01T11:33:20.145Z,100064.00
2022-08-01T11:38:31.003Z,100060.81
2022-08-01T11:43:33.269Z,100063.78
2022-08-01T11:48:34.903Z,100075.13
2022-08-01T11:53:38.473Z,100086.66
2022-08-01T11:58:42.594Z,100087.25
2022-08-01T12:03:44.458Z,100082.53
2022-08-01T12:08:47.596Z,100087.34
2022-08-01T12:13:50.436Z,100092.94
2022-08-01T12:18:52.208Z,100088.97
2022-08-01T12:24:03.651Z,100094.09
2022-08-01T12:29:05.244Z,100090.28
2022-08-01T12:34:25.726Z,100090.19
2022-08-01T12:39:33.190Z,100087.31
2022-08-01T12:44:35.402Z,100073.09
2022-08-01T12:49:37.607Z,100071.63
2022-08-01T12:55:18.566Z,100077.19
2022-08-01T13:00:28.819Z,100082.97
2022-08-01T13:06:01.846Z,100074.47
2022-08-01T13:11:09.770Z,100086.41
2022-08-01T13:16:18.161Z,100067.31
2022-08-01T13:21:34.684Z,100076.97
2022-08-01T13:26:59.484Z,100078.81
2022-08-01T13:32:28.411Z,100075.00
2022-08-01T13:37:32.401Z,100082.72
2022-08-01T13:42:34.280Z,100082.22
2022-08-01T13:47:35.900Z,100090.75
2022-08-01T13:52:37.486Z,100089.34
2022-08-01T13:57:39.185Z,100080.13
2022-08-01T14:02:41.306Z,100090.94
2022-08-01T14:07:43.764Z,100087.22
2022-08-01T14:12:50.667Z,100096.16
2022-08-01T14:17:52.502Z,100090.50
2022-08-01T14:22:54.278Z,100100.31
2022-08-01T14:27:56.059Z,100098.16
2022-08-01T14:32:57.594Z,100116.50
2022-08-01T14:37:59.266Z,100104.78
2022-08-01T14:43:02.236Z,100107.66
2022-08-01T14:48:04.017Z,100109.44
2022-08-01T14:53:05.613Z,100120.59
2022-08-01T14:58:07.188Z,100119.91
2022-08-01T15:03:08.820Z,100119.78
2022-08-01T15:08:10.402Z,100121.97
2022-08-01T15:13:12.007Z,100117.09
2022-08-01T15:18:13.647Z,100119.03
2022-08-01T15:23:15.396Z,100122.59
2022-08-01T15:28:17.239Z,100128.09
2022-08-01T15:33:18.914Z,100124.84
2022-08-01T15:38:20.560Z,100130.47
2022-08-01T15:43:22.188Z,100130.47
2022-08-01T15:48:23.973Z,100132.81
2022-08-01T15:53:25.531Z,100135.13
2022-08-01T15:58:27.123Z,100128.34
2022-08-01T16:03:28.813Z,100131.31
2022-08-01T16:08:30.373Z,100133.00
2022-08-01T16:13:31.942Z,100141.97
2022-08-01T16:18:33.577Z,100135.50
2022-08-01T16:23:35.225Z,100140.03
2022-08-01T16:28:37.194Z,100130.34
2022-08-01T16:33:45.750Z,100132.31
2022-08-01T16:38:56.148Z,100133.63
2022-08-01T16:43:58.169Z,100130.59
2022-08-01T16:48:59.897Z,100130.00
2022-08-01T16:54:01.523Z,100134.19
2022-08-01T16:59:03.171Z,100128.19
2022-08-01T17:04:04.937Z,100133.06
2022-08-01T17:09:06.566Z,100134.19
2022-08-01T17:14:08.170Z,100135.00
2022-08-01T17:19:10.124Z,100129.19
2022-08-01T17:24:12.355Z,100144.31
2022-08-01T17:29:18.311Z,100145.13
2022-08-01T17:34:19.899Z,100157.41
2022-08-01T17:39:23.836Z,100156.75
2022-08-01T17:44:41.745Z,100161.81
2022-08-01T17:49:55.013Z,100161.22
2022-08-01T17:54:57.174Z,100160.28
2022-08-01T17:59:58.792Z,100165.81
2022-08-01T18:05:00.371Z,100159.66
2022-08-01T18:10:02.005Z,100166.44
2022-08-01T18:15:06.035Z,100177.19
2022-08-01T18:20:09.055Z,100177.09
2022-08-01T18:25:10.699Z,100187.16
2022-08-01T18:30:12.488Z,100183.22
2022-08-01T18:35:14.603Z,100186.69
2022-08-01T18:40:22.697Z,100188.50
2022-08-01T18:45:24.661Z,100195.50
2022-08-01T18:50:27.003Z,100200.75
2022-08-01T18:55:28.630Z,100212.19
2022-08-01T19:00:30.473Z,100216.22
2022-08-01T19:05:34.785Z,100222.16
2022-08-01T19:10:39.736Z,100217.53
2022-08-01T19:15:41.331Z,100226.94
2022-08-01T19:20:44.792Z,100240.38
2022-08-01T19:25:55.385Z,100247.97
2022-08-01T19:30:58.287Z,100255.19
2022-08-01T19:36:00.479Z,100265.66
2022-08-01T19:41:03.613Z,100275.25
2022-08-01T19:46:08.314Z,100273.06
2022-08-01T19:51:21.582Z,100282.81
2022-08-01T19:56:26.129Z,100293.66
2022-08-01T20:01:27.843Z,100299.69
2022-08-01T20:06:29.518Z,100300.53
2022-08-01T20:11:31.443Z,100306.81
2022-08-01T20:16:33.827Z,100311.03
2022-08-01T20:21:36.161Z,100324.31
2022-08-01T20:26:38.229Z,100330.25
2022-08-01T20:31:44.315Z,100325.00
2022-08-01T20:36:48.117Z,100329.41
2022-08-01T20:41:59.496Z,100326.63
2022-08-01T20:47:04.926Z,100333.06
2022-08-01T20:52:11.887Z,100335.66
2022-08-01T20:57:25.348Z,100339.69
2022-08-01T21:02:43.357Z,100338.84
2022-08-01T21:07:54.065Z,100351.16
2022-08-01T21:12:58.631Z,100340.59
2022-08-01T21:18:10.803Z,100346.59
2022-08-01T21:23:28.722Z,100348.63
2022-08-01T21:28:34.150Z,100347.44
2022-08-01T21:34:02.216Z,100349.91
2022-08-01T21:39:03.185Z,100352.97
2022-08-01T21:44:04.946Z,100354.78
2022-08-01T21:49:07.888Z,100358.16
2022-08-01T21:55:17.338Z,100368.63
2022-08-01T22:00:25.757Z,100364.47
2022-08-01T22:05:42.565Z,100371.06
2022-08-01T22:11:04.637Z,100372.03
2022-08-01T22:16:06.526Z,100371.38
2022-08-01T22:21:08.512Z,100389.53
2022-08-01T22:26:11.455Z,100391.38
2022-08-01T22:31:16.296Z,100399.03
2022-08-01T22:36:18.318Z,100398.03
2022-08-01T22:41:25.996Z,100396.38
2022-08-01T22:46:49.074Z,100400.13
2022-08-01T22:52:15.378Z,100400.56
2022-08-01T22:57:24.752Z,100394.34
2022-08-01T23:02:28.425Z,100405.28
2022-08-01T23:07:33.981Z,100410.81
2022-08-01T23:12:36.731Z,100407.25
2022-08-01T23:17:38.315Z,100411.63
2022-08-01T23:22:40.945Z,100401.63
2022-08-01T23:28:03.647Z,100400.34
2022-08-01T23:33:07.057Z,100403.94
2022-08-01T23:38:10.192Z,100404.38
2022-08-01T23:43:16.119Z,100402.31
2022-08-01T23:48:19.133Z,100410.34
2022-08-01T23:53:20.830Z,100409.91
2022-08-01T23:58:22.498Z,100399.16
